sensor_id;sensor_type;location;lat;lon;timestamp;P1;durP1;ratioP1;P2;durP2;ratioP2
32445;SDS011;18899;50.748;7.102;2022-11-14T00:00:41;15.55;;;7.82;;
32445;SDS011;18899;50.748;7.102;2022-11-14T00:03:08;20.70;;;8.85;;
32445;SDS011;18899;50.748;7.102;2022-11-14T00:05:38;19.55;;;8.63;;
32445;SDS011;18899;50.748;7.102;2022-11-14T00:08:05;13.23;;;7.40;;
32445;SDS011;18899;50.748;7.102;2022-11-14T00:10:30;14.95;;;8.00;;
32445;SDS011;18899;50.748;7.102;2022-11-14T00:12:56;20.23;;;8.80;;
32445;SDS011;18899;50.748;7.102;2022-11-14T00:15:21;15.93;;;8.00;;
32445;SDS011;18899;50.748;7.102;2022-11-14T00:17:47;17.02;;;8.20;;
32445;SDS011;18899;50.748;7.102;2022-11-14T00:20:12;17.38;;;8.55;;
32445;SDS011;18899;50.748;7.102;2022-11-14T00:22:38;15.00;;;8.18;;
32445;SDS011;18899;50.748;7.102;2022-11-14T00:25:04;16.25;;;8.50;;
32445;SDS011;18899;50.748;7.102;2022-11-14T00:27:29;22.63;;;9.43;;
32445;SDS011;18899;50.748;7.102;2022-11-14T00:29:55;15.40;;;8.25;;
32445;SDS011;18899;50.748;7.102;2022-11-14T00:32:20;14.63;;;7.93;;
32445;SDS011;18899;50.748;7.102;2022-11-14T00:34:46;18.98;;;8.63;;
32445;SDS011;18899;50.748;7.102;2022-11-14T00:37:12;15.85;;;8.68;;
32445;SDS011;18899;50.748;7.102;2022-11-14T00:39:38;17.35;;;8.00;;
32445;SDS011;18899;50.748;7.102;2022-11-14T00:42:04;14.15;;;7.78;;
32445;SDS011;18899;50.748;7.102;2022-11-14T00:44:29;15.18;;;8.30;;
32445;SDS011;18899;50.748;7.102;2022-11-14T00:46:55;15.57;;;8.48;;
32445;SDS011;18899;50.748;7.102;2022-11-14T00:49:20;17.70;;;8.30;;
32445;SDS011;18899;50.748;7.102;2022-11-14T00:51:46;17.55;;;8.82;;
32445;SDS011;18899;50.748;7.102;2022-11-14T00:54:11;18.60;;;9.30;;
32445;SDS011;18899;50.748;7.102;2022-11-14T00:56:37;17.13;;;8.63;;
32445;SDS011;18899;50.748;7.102;2022-11-14T00:59:02;21.05;;;9.75;;
32445;SDS011;18899;50.748;7.102;2022-11-14T01:01:28;18.17;;;8.57;;
32445;SDS011;18899;50.748;7.102;2022-11-14T01:03:53;17.17;;;9.02;;
32445;SDS011;18899;50.748;7.102;2022-11-14T01:06:19;16.33;;;8.93;;
32445;SDS011;18899;50.748;7.102;2022-11-14T01:08:45;18.58;;;8.90;;
32445;SDS011;18899;50.748;7.102;2022-11-14T01:11:12;18.15;;;8.70;;
32445;SDS011;18899;50.748;7.102;2022-11-14T01:13:40;18.83;;;8.80;;
32445;SDS011;18899;50.748;7.102;2022-11-14T01:16:06;18.40;;;9.55;;
32445;SDS011;18899;50.748;7.102;2022-11-14T01:18:32;18.58;;;9.85;;
32445;SDS011;18899;50.748;7.102;2022-11-14T01:20:57;18.58;;;9.80;;
32445;SDS011;18899;50.748;7.102;2022-11-14T01:23:23;17.23;;;9.18;;
32445;SDS011;18899;50.748;7.102;2022-11-14T01:25:48;19.08;;;9.95;;
32445;SDS011;18899;50.748;7.102;2022-11-14T01:28:15;19.73;;;9.38;;
32445;SDS011;18899;50.748;7.102;2022-11-14T01:30:43;18.45;;;9.63;;
32445;SDS011;18899;50.748;7.102;2022-11-14T01:33:09;20.63;;;9.73;;
32445;SDS011;18899;50.748;7.102;2022-11-14T01:35:35;17.77;;;9.00;;
32445;SDS011;18899;50.748;7.102;2022-11-14T01:38:02;18.27;;;9.20;;
32445;SDS011;18899;50.748;7.102;2022-11-14T01:40:29;18.52;;;10.55;;
32445;SDS011;18899;50.748;7.102;2022-11-14T01:43:20;20.35;;;10.85;;
32445;SDS011;18899;50.748;7.102;2022-11-14T01:51:34;20.80;;;9.55;;
32445;SDS011;18899;50.748;7.102;2022-11-14T01:54:14;18.35;;;9.77;;
32445;SDS011;18899;50.748;7.102;2022-11-14T01:56:57;22.13;;;10.02;;
32445;SDS011;18899;50.748;7.102;2022-11-14T01:59:28;19.23;;;10.00;;
32445;SDS011;18899;50.748;7.102;2022-11-14T02:02:01;17.83;;;9.48;;
32445;SDS011;18899;50.748;7.102;2022-11-14T02:04:34;20.75;;;10.40;;
32445;SDS011;18899;50.748;7.102;2022-11-14T02:07:03;20.20;;;10.13;;
32445;SDS011;18899;50.748;7.102;2022-11-14T02:09:32;17.95;;;10.15;;
32445;SDS011;18899;50.748;7.102;2022-11-14T02:12:00;17.05;;;9.45;;
32445;SDS011;18899;50.748;7.102;2022-11-14T02:14:28;21.02;;;10.60;;
32445;SDS011;18899;50.748;7.102;2022-11-14T02:16:54;20.60;;;10.27;;
32445;SDS011;18899;50.748;7.102;2022-11-14T02:19:20;18.75;;;10.15;;
32445;SDS011;18899;50.748;7.102;2022-11-14T02:21:46;18.60;;;10.30;;
32445;SDS011;18899;50.748;7.102;2022-11-14T02:24:12;21.85;;;10.57;;
32445;SDS011;18899;50.748;7.102;2022-11-14T02:26:37;18.70;;;10.20;;
32445;SDS011;18899;50.748;7.102;2022-11-14T02:29:04;22.95;;;11.07;;
32445;SDS011;18899;50.748;7.102;2022-11-14T02:31:31;22.85;;;10.70;;
32445;SDS011;18899;50.748;7.102;2022-11-14T02:33:57;19.52;;;10.65;;
32445;SDS011;18899;50.748;7.102;2022-11-14T02:36:23;18.17;;;9.88;;
32445;SDS011;18899;50.748;7.102;2022-11-14T02:42:01;18.73;;;9.00;;
32445;SDS011;18899;50.748;7.102;2022-11-14T02:44:26;17.02;;;8.20;;
32445;SDS011;18899;50.748;7.102;2022-11-14T02:46:52;17.27;;;9.13;;
32445;SDS011;18899;50.748;7.102;2022-11-14T02:49:17;16.70;;;8.52;;
32445;SDS011;18899;50.748;7.102;2022-11-14T02:51:43;15.82;;;7.57;;
32445;SDS011;18899;50.748;7.102;2022-11-14T02:54:12;16.45;;;8.43;;
32445;SDS011;18899;50.748;7.102;2022-11-14T02:56:37;18.23;;;8.68;;
32445;SDS011;18899;50.748;7.102;2022-11-14T02:59:03;16.55;;;7.90;;
32445;SDS011;18899;50.748;7.102;2022-11-14T03:01:28;17.55;;;8.75;;
32445;SDS011;18899;50.748;7.102;2022-11-14T03:03:54;20.10;;;9.07;;
32445;SDS011;18899;50.748;7.102;2022-11-14T03:06:20;18.15;;;10.30;;
32445;SDS011;18899;50.748;7.102;2022-11-14T03:08:45;19.40;;;9.93;;
32445;SDS011;18899;50.748;7.102;2022-11-14T03:11:11;21.33;;;9.88;;
32445;SDS011;18899;50.748;7.102;2022-11-14T03:13:36;17.52;;;10.02;;
32445;SDS011;18899;50.748;7.102;2022-11-14T03:16:06;21.83;;;11.45;;
32445;SDS011;18899;50.748;7.102;2022-11-14T03:18:32;25.00;;;10.90;;
32445;SDS011;18899;50.748;7.102;2022-11-14T03:21:09;22.08;;;10.52;;
32445;SDS011;18899;50.748;7.102;2022-11-14T03:23:37;24.40;;;12.15;;
32445;SDS011;18899;50.748;7.102;2022-11-14T03:26:03;23.73;;;11.50;;
32445;SDS011;18899;50.748;7.102;2022-11-14T03:28:31;23.48;;;11.93;;
32445;SDS011;18899;50.748;7.102;2022-11-14T03:30:56;21.83;;;10.45;;
32445;SDS011;18899;50.748;7.102;2022-11-14T03:33:22;21.08;;;11.80;;
32445;SDS011;18899;50.748;7.102;2022-11-14T03:35:48;22.13;;;10.65;;
32445;SDS011;18899;50.748;7.102;2022-11-14T03:38:15;19.50;;;11.13;;
32445;SDS011;18899;50.748;7.102;2022-11-14T03:40:41;25.58;;;11.10;;
32445;SDS011;18899;50.748;7.102;2022-11-14T03:43:07;20.58;;;10.95;;
32445;SDS011;18899;50.748;7.102;2022-11-14T03:45:33;22.10;;;10.45;;
32445;SDS011;18899;50.748;7.102;2022-11-14T03:48:00;24.67;;;12.32;;
32445;SDS011;18899;50.748;7.102;2022-11-14T03:50:26;28.63;;;12.27;;
32445;SDS011;18899;50.748;7.102;2022-11-14T03:52:51;23.05;;;12.38;;
32445;SDS011;18899;50.748;7.102;2022-11-14T03:55:17;28.35;;;13.23;;
32445;SDS011;18899;50.748;7.102;2022-11-14T03:57:42;24.38;;;12.88;;
32445;SDS011;18899;50.748;7.102;2022-11-14T04:00:08;23.58;;;11.70;;
32445;SDS011;18899;50.748;7.102;2022-11-14T04:02:34;23.63;;;11.50;;
32445;SDS011;18899;50.748;7.102;2022-11-14T04:05:01;28.65;;;12.88;;
32445;SDS011;18899;50.748;7.102;2022-11-14T04:07:26;24.33;;;12.25;;
32445;SDS011;18899;50.748;7.102;2022-11-14T04:09:51;23.00;;;11.48;;
32445;SDS011;18899;50.748;7.102;2022-11-14T04:12:17;30.45;;;13.05;;
32445;SDS011;18899;50.748;7.102;2022-11-14T04:14:43;21.73;;;12.15;;
32445;SDS011;18899;50.748;7.102;2022-11-14T04:17:08;30.95;;;12.23;;
32445;SDS011;18899;50.748;7.102;2022-11-14T04:19:35;29.77;;;11.52;;
32445;SDS011;18899;50.748;7.102;2022-11-14T04:22:00;38.28;;;13.43;;
32445;SDS011;18899;50.748;7.102;2022-11-14T04:24:26;32.10;;;12.50;;
32445;SDS011;18899;50.748;7.102;2022-11-14T04:26:51;24.65;;;13.02;;
32445;SDS011;18899;50.748;7.102;2022-11-14T04:29:17;26.23;;;12.73;;
32445;SDS011;18899;50.748;7.102;2022-11-14T04:31:43;23.73;;;11.95;;
32445;SDS011;18899;50.748;7.102;2022-11-14T04:34:08;27.35;;;12.43;;
32445;SDS011;18899;50.748;7.102;2022-11-14T04:36:34;21.88;;;11.10;;
32445;SDS011;18899;50.748;7.102;2022-11-14T04:38:59;25.73;;;12.52;;
32445;SDS011;18899;50.748;7.102;2022-11-14T04:41:25;31.92;;;13.32;;
32445;SDS011;18899;50.748;7.102;2022-11-14T04:43:51;27.88;;;13.55;;
32445;SDS011;18899;50.748;7.102;2022-11-14T04:46:16;28.38;;;13.50;;
32445;SDS011;18899;50.748;7.102;2022-11-14T04:48:42;24.25;;;12.40;;
32445;SDS011;18899;50.748;7.102;2022-11-14T04:51:07;23.77;;;11.98;;
32445;SDS011;18899;50.748;7.102;2022-11-14T04:53:33;25.02;;;11.95;;
32445;SDS011;18899;50.748;7.102;2022-11-14T04:55:58;23.80;;;12.07;;
32445;SDS011;18899;50.748;7.102;2022-11-14T04:58:24;26.27;;;12.45;;
32445;SDS011;18899;50.748;7.102;2022-11-14T05:00:50;25.05;;;12.23;;
32445;SDS011;18899;50.748;7.102;2022-11-14T05:03:16;28.92;;;13.07;;
32445;SDS011;18899;50.748;7.102;2022-11-14T05:05:41;24.35;;;11.82;;
32445;SDS011;18899;50.748;7.102;2022-11-14T05:08:07;22.50;;;11.30;;
32445;SDS011;18899;50.748;7.102;2022-11-14T05:10:32;26.50;;;12.75;;
32445;SDS011;18899;50.748;7.102;2022-11-14T05:12:58;24.02;;;12.32;;
32445;SDS011;18899;50.748;7.102;2022-11-14T05:15:23;22.20;;;11.00;;
32445;SDS011;18899;50.748;7.102;2022-11-14T05:17:49;24.17;;;11.27;;
32445;SDS011;18899;50.748;7.102;2022-11-14T05:20:15;23.20;;;11.80;;
32445;SDS011;18899;50.748;7.102;2022-11-14T05:22:40;25.08;;;11.77;;
32445;SDS011;18899;50.748;7.102;2022-11-14T05:25:06;26.33;;;12.10;;
32445;SDS011;18899;50.748;7.102;2022-11-14T05:27:32;23.15;;;11.15;;
32445;SDS011;18899;50.748;7.102;2022-11-14T05:29:58;27.38;;;11.85;;
32445;SDS011;18899;50.748;7.102;2022-11-14T05:32:23;23.38;;;11.95;;
32445;SDS011;18899;50.748;7.102;2022-11-14T05:34:49;23.58;;;11.98;;
32445;SDS011;18899;50.748;7.102;2022-11-14T05:37:15;21.50;;;11.52;;
32445;SDS011;18899;50.748;7.102;2022-11-14T05:39:40;22.30;;;11.25;;
32445;SDS011;18899;50.748;7.102;2022-11-14T05:42:06;25.65;;;11.38;;
32445;SDS011;18899;50.748;7.102;2022-11-14T05:44:31;25.92;;;11.95;;
32445;SDS011;18899;50.748;7.102;2022-11-14T05:46:57;24.15;;;11.10;;
32445;SDS011;18899;50.748;7.102;2022-11-14T05:49:22;23.00;;;11.57;;
32445;SDS011;18899;50.748;7.102;2022-11-14T05:51:48;24.90;;;12.43;;
32445;SDS011;18899;50.748;7.102;2022-11-14T05:54:13;23.48;;;11.63;;
32445;SDS011;18899;50.748;7.102;2022-11-14T05:56:39;27.58;;;12.55;;
32445;SDS011;18899;50.748;7.102;2022-11-14T05:59:04;23.80;;;12.55;;
32445;SDS011;18899;50.748;7.102;2022-11-14T06:01:30;33.47;;;13.88;;
32445;SDS011;18899;50.748;7.102;2022-11-14T06:03:56;26.60;;;13.38;;
32445;SDS011;18899;50.748;7.102;2022-11-14T06:06:21;29.27;;;12.95;;
32445;SDS011;18899;50.748;7.102;2022-11-14T06:08:47;32.38;;;13.45;;
32445;SDS011;18899;50.748;7.102;2022-11-14T06:11:17;31.67;;;13.25;;
32445;SDS011;18899;50.748;7.102;2022-11-14T06:13:44;27.05;;;13.00;;
32445;SDS011;18899;50.748;7.102;2022-11-14T06:16:17;28.73;;;13.63;;
32445;SDS011;18899;50.748;7.102;2022-11-14T06:18:43;26.17;;;13.25;;
32445;SDS011;18899;50.748;7.102;2022-11-14T06:21:13;28.08;;;13.82;;
32445;SDS011;18899;50.748;7.102;2022-11-14T06:23:40;29.90;;;13.60;;
32445;SDS011;18899;50.748;7.102;2022-11-14T06:26:08;27.42;;;13.13;;
32445;SDS011;18899;50.748;7.102;2022-11-14T06:28:50;30.70;;;13.52;;
32445;SDS011;18899;50.748;7.102;2022-11-14T06:31:17;24.38;;;12.30;;
32445;SDS011;18899;50.748;7.102;2022-11-14T06:33:44;26.08;;;14.13;;
32445;SDS011;18899;50.748;7.102;2022-11-14T06:36:10;29.67;;;12.93;;
32445;SDS011;18899;50.748;7.102;2022-11-14T06:38:37;29.65;;;12.90;;
32445;SDS011;18899;50.748;7.102;2022-11-14T06:41:16;25.48;;;13.02;;
32445;SDS011;18899;50.748;7.102;2022-11-14T06:43:46;28.73;;;14.48;;
32445;SDS011;18899;50.748;7.102;2022-11-14T06:46:14;31.75;;;15.07;;
32445;SDS011;18899;50.748;7.102;2022-11-14T06:48:41;27.60;;;13.27;;
32445;SDS011;18899;50.748;7.102;2022-11-14T06:51:08;30.13;;;13.48;;
32445;SDS011;18899;50.748;7.102;2022-11-14T06:53:36;26.23;;;13.02;;
32445;SDS011;18899;50.748;7.102;2022-11-14T06:58:32;28.50;;;14.65;;
32445;SDS011;18899;50.748;7.102;2022-11-14T07:01:06;25.17;;;11.82;;
32445;SDS011;18899;50.748;7.102;2022-11-14T07:03:36;25.33;;;11.82;;
32445;SDS011;18899;50.748;7.102;2022-11-14T07:06:02;30.52;;;12.63;;
32445;SDS011;18899;50.748;7.102;2022-11-14T07:08:29;30.75;;;12.55;;
32445;SDS011;18899;50.748;7.102;2022-11-14T07:11:02;29.13;;;12.45;;
32445;SDS011;18899;50.748;7.102;2022-11-14T07:13:35;25.73;;;11.38;;
32445;SDS011;18899;50.748;7.102;2022-11-14T07:16:02;21.15;;;10.70;;
32445;SDS011;18899;50.748;7.102;2022-11-14T07:18:29;20.98;;;10.70;;
32445;SDS011;18899;50.748;7.102;2022-11-14T07:21:03;19.23;;;10.38;;
32445;SDS011;18899;50.748;7.102;2022-11-14T07:23:30;19.80;;;10.23;;
32445;SDS011;18899;50.748;7.102;2022-11-14T07:26:03;20.08;;;10.85;;
32445;SDS011;18899;50.748;7.102;2022-11-14T07:28:33;22.90;;;10.63;;
32445;SDS011;18899;50.748;7.102;2022-11-14T07:31:07;20.27;;;10.00;;
32445;SDS011;18899;50.748;7.102;2022-11-14T07:33:34;17.95;;;8.82;;
32445;SDS011;18899;50.748;7.102;2022-11-14T07:36:00;19.83;;;10.10;;
32445;SDS011;18899;50.748;7.102;2022-11-14T07:38:26;24.13;;;11.27;;
32445;SDS011;18899;50.748;7.102;2022-11-14T07:40:55;25.80;;;11.45;;
32445;SDS011;18899;50.748;7.102;2022-11-14T07:43:21;24.15;;;11.73;;
32445;SDS011;18899;50.748;7.102;2022-11-14T07:45:47;23.60;;;12.55;;
32445;SDS011;18899;50.748;7.102;2022-11-14T07:48:13;27.60;;;13.52;;
32445;SDS011;18899;50.748;7.102;2022-11-14T07:50:39;29.52;;;13.68;;
32445;SDS011;18899;50.748;7.102;2022-11-14T07:53:04;32.60;;;15.73;;
32445;SDS011;18899;50.748;7.102;2022-11-14T07:55:30;32.55;;;14.02;;
32445;SDS011;18899;50.748;7.102;2022-11-14T07:57:58;29.98;;;14.30;;
32445;SDS011;18899;50.748;7.102;2022-11-14T08:00:23;28.20;;;13.35;;
32445;SDS011;18899;50.748;7.102;2022-11-14T08:02:49;34.25;;;14.38;;
32445;SDS011;18899;50.748;7.102;2022-11-14T08:05:15;32.75;;;14.27;;
32445;SDS011;18899;50.748;7.102;2022-11-14T08:07:40;29.25;;;14.35;;
32445;SDS011;18899;50.748;7.102;2022-11-14T08:10:06;29.30;;;13.95;;
32445;SDS011;18899;50.748;7.102;2022-11-14T08:12:32;31.50;;;14.18;;
32445;SDS011;18899;50.748;7.102;2022-11-14T08:14:58;31.02;;;13.60;;
32445;SDS011;18899;50.748;7.102;2022-11-14T08:17:23;32.28;;;12.60;;
32445;SDS011;18899;50.748;7.102;2022-11-14T08:19:49;26.20;;;12.25;;
32445;SDS011;18899;50.748;7.102;2022-11-14T08:22:14;33.95;;;13.52;;
32445;SDS011;18899;50.748;7.102;2022-11-14T08:24:40;28.15;;;12.43;;
32445;SDS011;18899;50.748;7.102;2022-11-14T08:27:05;25.67;;;12.35;;
32445;SDS011;18899;50.748;7.102;2022-11-14T08:29:31;25.90;;;11.75;;
32445;SDS011;18899;50.748;7.102;2022-11-14T08:31:56;29.88;;;13.30;;
32445;SDS011;18899;50.748;7.102;2022-11-14T08:34:23;26.65;;;12.35;;
32445;SDS011;18899;50.748;7.102;2022-11-14T08:36:49;31.55;;;13.57;;
32445;SDS011;18899;50.748;7.102;2022-11-14T08:39:14;26.85;;;11.63;;
32445;SDS011;18899;50.748;7.102;2022-11-14T08:41:40;24.42;;;12.88;;
32445;SDS011;18899;50.748;7.102;2022-11-14T08:44:05;26.38;;;13.45;;
32445;SDS011;18899;50.748;7.102;2022-11-14T08:46:31;25.25;;;12.38;;
32445;SDS011;18899;50.748;7.102;2022-11-14T08:48:57;24.63;;;11.90;;
32445;SDS011;18899;50.748;7.102;2022-11-14T08:51:22;29.75;;;11.65;;
32445;SDS011;18899;50.748;7.102;2022-11-14T08:53:48;23.25;;;10.85;;
32445;SDS011;18899;50.748;7.102;2022-11-14T08:56:15;27.33;;;11.77;;
32445;SDS011;18899;50.748;7.102;2022-11-14T08:58:40;24.38;;;11.13;;
32445;SDS011;18899;50.748;7.102;2022-11-14T09:01:06;25.38;;;11.85;;
32445;SDS011;18899;50.748;7.102;2022-11-14T09:03:32;27.27;;;11.40;;
32445;SDS011;18899;50.748;7.102;2022-11-14T09:05:58;24.77;;;12.05;;
32445;SDS011;18899;50.748;7.102;2022-11-14T09:08:26;24.65;;;11.40;;
32445;SDS011;18899;50.748;7.102;2022-11-14T09:10:52;25.52;;;12.63;;
32445;SDS011;18899;50.748;7.102;2022-11-14T09:13:18;30.25;;;12.20;;
32445;SDS011;18899;50.748;7.102;2022-11-14T09:15:44;24.98;;;11.40;;
32445;SDS011;18899;50.748;7.102;2022-11-14T09:18:09;23.05;;;10.75;;
32445;SDS011;18899;50.748;7.102;2022-11-14T09:20:36;26.67;;;11.70;;
32445;SDS011;18899;50.748;7.102;2022-11-14T09:23:02;25.85;;;11.65;;
32445;SDS011;18899;50.748;7.102;2022-11-14T09:25:28;20.70;;;10.95;;
32445;SDS011;18899;50.748;7.102;2022-11-14T09:27:54;28.30;;;12.13;;
32445;SDS011;18899;50.748;7.102;2022-11-14T09:30:20;29.00;;;11.77;;
32445;SDS011;18899;50.748;7.102;2022-11-14T09:32:49;28.42;;;11.68;;
32445;SDS011;18899;50.748;7.102;2022-11-14T09:35:15;26.35;;;11.38;;
32445;SDS011;18899;50.748;7.102;2022-11-14T09:37:41;28.00;;;11.27;;
32445;SDS011;18899;50.748;7.102;2022-11-14T09:40:07;25.25;;;11.45;;
32445;SDS011;18899;50.748;7.102;2022-11-14T09:42:44;24.05;;;11.18;;
32445;SDS011;18899;50.748;7.102;2022-11-14T09:45:21;24.83;;;10.95;;
32445;SDS011;18899;50.748;7.102;2022-11-14T09:47:47;23.92;;;10.57;;
32445;SDS011;18899;50.748;7.102;2022-11-14T09:50:19;26.77;;;11.10;;
32445;SDS011;18899;50.748;7.102;2022-11-14T09:52:56;24.10;;;11.68;;
32445;SDS011;18899;50.748;7.102;2022-11-14T09:55:32;27.65;;;11.60;;
32445;SDS011;18899;50.748;7.102;2022-11-14T09:57:59;26.55;;;11.38;;
32445;SDS011;18899;50.748;7.102;2022-11-14T10:00:49;26.98;;;12.70;;
32445;SDS011;18899;50.748;7.102;2022-11-14T10:11:41;23.65;;;11.88;;
32445;SDS011;18899;50.748;7.102;2022-11-14T10:14:29;23.17;;;11.18;;
32445;SDS011;18899;50.748;7.102;2022-11-14T10:25:23;22.33;;;10.80;;
32445;SDS011;18899;50.748;7.102;2022-11-14T10:39:54;29.05;;;12.30;;
32445;SDS011;18899;50.748;7.102;2022-11-14T10:45:06;27.60;;;12.10;;
32445;SDS011;18899;50.748;7.102;2022-11-14T10:48:00;26.60;;;11.55;;
32445;SDS011;18899;50.748;7.102;2022-11-14T10:53:33;27.02;;;11.65;;
32445;SDS011;18899;50.748;7.102;2022-11-14T10:56:07;28.30;;;12.35;;
32445;SDS011;18899;50.748;7.102;2022-11-14T10:58:36;22.75;;;11.50;;
32445;SDS011;18899;50.748;7.102;2022-11-14T11:01:30;25.95;;;12.07;;
32445;SDS011;18899;50.748;7.102;2022-11-14T11:04:12;20.90;;;10.05;;
32445;SDS011;18899;50.748;7.102;2022-11-14T11:06:38;24.40;;;12.02;;
32445;SDS011;18899;50.748;7.102;2022-11-14T11:09:07;26.85;;;11.70;;
32445;SDS011;18899;50.748;7.102;2022-11-14T11:11:56;26.20;;;12.07;;
32445;SDS011;18899;50.748;7.102;2022-11-14T11:14:25;27.67;;;12.43;;
32445;SDS011;18899;50.748;7.102;2022-11-14T11:19:35;27.90;;;12.30;;
32445;SDS011;18899;50.748;7.102;2022-11-14T11:22:01;29.42;;;12.85;;
32445;SDS011;18899;50.748;7.102;2022-11-14T11:24:34;31.67;;;12.65;;
32445;SDS011;18899;50.748;7.102;2022-11-14T11:32:42;30.92;;;13.65;;
32445;SDS011;18899;50.748;7.102;2022-11-14T11:35:14;30.13;;;13.35;;
32445;SDS011;18899;50.748;7.102;2022-11-14T11:37:59;27.70;;;12.88;;
32445;SDS011;18899;50.748;7.102;2022-11-14T11:40:27;32.75;;;13.30;;
32445;SDS011;18899;50.748;7.102;2022-11-14T11:43:09;28.17;;;12.63;;
32445;SDS011;18899;50.748;7.102;2022-11-14T11:45:44;24.30;;;12.40;;
32445;SDS011;18899;50.748;7.102;2022-11-14T11:48:20;33.55;;;13.82;;
32445;SDS011;18899;50.748;7.102;2022-11-14T11:50:47;30.60;;;12.63;;
32445;SDS011;18899;50.748;7.102;2022-11-14T11:53:19;29.02;;;11.98;;
32445;SDS011;18899;50.748;7.102;2022-11-14T11:56:13;30.80;;;13.15;;
32445;SDS011;18899;50.748;7.102;2022-11-14T11:58:47;29.42;;;12.45;;
32445;SDS011;18899;50.748;7.102;2022-11-14T12:01:19;27.15;;;11.32;;
32445;SDS011;18899;50.748;7.102;2022-11-14T12:03:53;24.77;;;11.93;;
32445;SDS011;18899;50.748;7.102;2022-11-14T12:06:20;26.15;;;11.52;;
32445;SDS011;18899;50.748;7.102;2022-11-14T12:11:45;28.98;;;13.20;;
32445;SDS011;18899;50.748;7.102;2022-11-14T12:19:42;21.65;;;10.38;;
32445;SDS011;18899;50.748;7.102;2022-11-14T12:25:21;26.70;;;11.80;;
32445;SDS011;18899;50.748;7.102;2022-11-14T12:30:45;25.20;;;11.80;;
32445;SDS011;18899;50.748;7.102;2022-11-14T12:35:49;26.08;;;11.32;;
32445;SDS011;18899;50.748;7.102;2022-11-14T12:38:17;25.17;;;11.02;;
32445;SDS011;18899;50.748;7.102;2022-11-14T12:40:57;29.80;;;11.90;;
32445;SDS011;18899;50.748;7.102;2022-11-14T12:45:58;29.23;;;12.68;;
32445;SDS011;18899;50.748;7.102;2022-11-14T12:50:50;25.20;;;12.57;;
32445;SDS011;18899;50.748;7.102;2022-11-14T13:01:44;28.40;;;12.30;;
32445;SDS011;18899;50.748;7.102;2022-11-14T13:07:08;23.83;;;12.18;;
32445;SDS011;18899;50.748;7.102;2022-11-14T13:15:20;23.52;;;11.90;;
32445;SDS011;18899;50.748;7.102;2022-11-14T13:18:12;22.08;;;11.18;;
32445;SDS011;18899;50.748;7.102;2022-11-14T13:21:01;28.15;;;13.38;;
32445;SDS011;18899;50.748;7.102;2022-11-14T13:28:42;26.63;;;12.52;;
32445;SDS011;18899;50.748;7.102;2022-11-14T13:33:46;21.13;;;10.65;;
32445;SDS011;18899;50.748;7.102;2022-11-14T13:36:21;23.08;;;11.32;;
32445;SDS011;18899;50.748;7.102;2022-11-14T13:39:02;34.35;;;12.00;;
32445;SDS011;18899;50.748;7.102;2022-11-14T13:50:29;21.88;;;11.07;;
32445;SDS011;18899;50.748;7.102;2022-11-14T13:52:56;26.13;;;11.90;;
32445;SDS011;18899;50.748;7.102;2022-11-14T13:55:34;21.75;;;10.90;;
32445;SDS011;18899;50.748;7.102;2022-11-14T14:01:18;27.35;;;11.73;;
32445;SDS011;18899;50.748;7.102;2022-11-14T14:09:56;24.05;;;10.68;;
32445;SDS011;18899;50.748;7.102;2022-11-14T14:12:47;22.48;;;11.27;;
32445;SDS011;18899;50.748;7.102;2022-11-14T14:15:45;23.60;;;11.30;;
32445;SDS011;18899;50.748;7.102;2022-11-14T14:26:49;22.58;;;10.80;;
32445;SDS011;18899;50.748;7.102;2022-11-14T14:31:51;26.40;;;11.88;;
32445;SDS011;18899;50.748;7.102;2022-11-14T14:34:21;18.73;;;10.65;;
32445;SDS011;18899;50.748;7.102;2022-11-14T14:36:56;21.27;;;10.77;;
32445;SDS011;18899;50.748;7.102;2022-11-14T14:39:23;20.77;;;9.38;;
32445;SDS011;18899;50.748;7.102;2022-11-14T14:41:51;21.02;;;10.20;;
32445;SDS011;18899;50.748;7.102;2022-11-14T14:44:23;22.05;;;10.57;;
32445;SDS011;18899;50.748;7.102;2022-11-14T14:46:55;18.08;;;9.63;;
32445;SDS011;18899;50.748;7.102;2022-11-14T14:49:22;20.10;;;10.52;;
32445;SDS011;18899;50.748;7.102;2022-11-14T14:51:53;19.75;;;10.15;;
32445;SDS011;18899;50.748;7.102;2022-11-14T14:54:28;18.70;;;9.88;;
32445;SDS011;18899;50.748;7.102;2022-11-14T14:56:54;19.40;;;9.68;;
32445;SDS011;18899;50.748;7.102;2022-11-14T14:59:24;18.17;;;9.85;;
32445;SDS011;18899;50.748;7.102;2022-11-14T15:01:51;19.65;;;9.90;;
32445;SDS011;18899;50.748;7.102;2022-11-14T15:04:19;24.27;;;9.73;;
32445;SDS011;18899;50.748;7.102;2022-11-14T15:06:47;21.27;;;10.15;;
32445;SDS011;18899;50.748;7.102;2022-11-14T15:09:15;20.35;;;9.55;;
32445;SDS011;18899;50.748;7.102;2022-11-14T15:11:55;17.60;;;9.63;;
32445;SDS011;18899;50.748;7.102;2022-11-14T15:14:27;15.13;;;9.00;;
32445;SDS011;18899;50.748;7.102;2022-11-14T15:16:56;18.70;;;10.05;;
32445;SDS011;18899;50.748;7.102;2022-11-14T15:19:24;20.95;;;10.38;;
32445;SDS011;18899;50.748;7.102;2022-11-14T15:22:18;24.73;;;9.98;;
32445;SDS011;18899;50.748;7.102;2022-11-14T15:24:43;18.98;;;10.48;;
32445;SDS011;18899;50.748;7.102;2022-11-14T15:27:26;20.02;;;10.23;;
32445;SDS011;18899;50.748;7.102;2022-11-14T15:29:52;18.88;;;10.60;;
32445;SDS011;18899;50.748;7.102;2022-11-14T15:32:25;20.15;;;9.75;;
32445;SDS011;18899;50.748;7.102;2022-11-14T15:37:32;19.92;;;9.50;;
32445;SDS011;18899;50.748;7.102;2022-11-14T15:40:17;19.27;;;9.85;;
32445;SDS011;18899;50.748;7.102;2022-11-14T15:42:44;19.35;;;9.90;;
32445;SDS011;18899;50.748;7.102;2022-11-14T15:45:20;17.88;;;9.35;;
32445;SDS011;18899;50.748;7.102;2022-11-14T15:48:00;16.02;;;8.95;;
32445;SDS011;18899;50.748;7.102;2022-11-14T15:50:29;16.75;;;8.02;;
32445;SDS011;18899;50.748;7.102;2022-11-14T15:53:01;17.98;;;9.18;;
32445;SDS011;18899;50.748;7.102;2022-11-14T15:55:31;18.30;;;9.73;;
32445;SDS011;18899;50.748;7.102;2022-11-14T15:57:57;17.55;;;8.98;;
32445;SDS011;18899;50.748;7.102;2022-11-14T16:00:22;20.45;;;9.32;;
32445;SDS011;18899;50.748;7.102;2022-11-14T16:02:52;20.38;;;10.50;;
32445;SDS011;18899;50.748;7.102;2022-11-14T16:05:23;16.83;;;9.55;;
32445;SDS011;18899;50.748;7.102;2022-11-14T16:07:51;15.55;;;8.82;;
32445;SDS011;18899;50.748;7.102;2022-11-14T16:10:18;18.00;;;9.07;;
32445;SDS011;18899;50.748;7.102;2022-11-14T16:12:45;19.05;;;9.80;;
32445;SDS011;18899;50.748;7.102;2022-11-14T16:15:11;19.80;;;10.80;;
32445;SDS011;18899;50.748;7.102;2022-11-14T16:17:37;17.58;;;9.73;;
32445;SDS011;18899;50.748;7.102;2022-11-14T16:20:05;16.58;;;9.52;;
32445;SDS011;18899;50.748;7.102;2022-11-14T16:22:34;18.65;;;9.68;;
32445;SDS011;18899;50.748;7.102;2022-11-14T16:25:00;18.88;;;10.00;;
32445;SDS011;18899;50.748;7.102;2022-11-14T16:27:25;18.27;;;9.68;;
32445;SDS011;18899;50.748;7.102;2022-11-14T16:29:52;22.35;;;10.52;;
32445;SDS011;18899;50.748;7.102;2022-11-14T16:32:18;19.25;;;10.30;;
32445;SDS011;18899;50.748;7.102;2022-11-14T16:34:44;21.33;;;11.80;;
32445;SDS011;18899;50.748;7.102;2022-11-14T16:37:10;18.70;;;10.10;;
32445;SDS011;18899;50.748;7.102;2022-11-14T16:39:37;17.50;;;10.23;;
32445;SDS011;18899;50.748;7.102;2022-11-14T16:42:03;19.98;;;11.18;;
32445;SDS011;18899;50.748;7.102;2022-11-14T16:44:29;21.42;;;9.95;;
32445;SDS011;18899;50.748;7.102;2022-11-14T16:46:55;18.48;;;10.55;;